sensor_id;sensor_type;location;lat;lon;timestamp;P1;durP1;ratioP1;P2;durP2;ratioP2
16430;SDS011;8325;49.284;7.238;2022-08-19T04:04:38;25.73;;;18.00;;
16430;SDS011;8325;49.284;7.238;2022-08-19T04:08:51;21.88;;;17.13;;
16430;SDS011;8325;49.284;7.238;2022-08-19T04:13:05;22.48;;;17.70;;
16430;SDS011;8325;49.284;7.238;2022-08-19T04:17:18;24.90;;;17.73;;
16430;SDS011;8325;49.284;7.238;2022-08-19T04:21:29;21.67;;;16.85;;
16430;SDS011;8325;49.284;7.238;2022-08-19T04:25:43;22.40;;;17.13;;
16430;SDS011;8325;49.284;7.238;2022-08-19T04:29:54;22.30;;;16.98;;
16430;SDS011;8325;49.284;7.238;2022-08-19T04:34:07;20.77;;;16.33;;
16430;SDS011;8325;49.284;7.238;2022-08-19T04:38:21;20.20;;;16.30;;
16430;SDS011;8325;49.284;7.238;2022-08-19T04:42:35;22.80;;;17.77;;
16430;SDS011;8325;49.284;7.238;2022-08-19T04:46:50;21.40;;;16.92;;
16430;SDS011;8325;49.284;7.238;2022-08-19T04:51:05;21.65;;;16.63;;
16430;SDS011;8325;49.284;7.238;2022-08-19T04:55:19;22.42;;;16.95;;
16430;SDS011;8325;49.284;7.238;2022-08-19T04:59:30;20.67;;;16.83;;
16430;SDS011;8325;49.284;7.238;2022-08-19T05:03:43;22.05;;;16.63;;
16430;SDS011;8325;49.284;7.238;2022-08-19T05:07:55;21.33;;;16.52;;
16430;SDS011;8325;49.284;7.238;2022-08-19T05:12:07;20.80;;;16.92;;
16430;SDS011;8325;49.284;7.238;2022-08-19T05:16:19;23.23;;;17.10;;
16430;SDS011;8325;49.284;7.238;2022-08-19T05:20:32;20.42;;;17.00;;
16430;SDS011;8325;49.284;7.238;2022-08-19T05:25:07;21.13;;;16.73;;
16430;SDS011;8325;49.284;7.238;2022-08-19T05:29:25;22.17;;;16.30;;
16430;SDS011;8325;49.284;7.238;2022-08-19T05:33:46;20.38;;;16.67;;
16430;SDS011;8325;49.284;7.238;2022-08-19T05:37:58;19.92;;;16.00;;
16430;SDS011;8325;49.284;7.238;2022-08-19T05:42:10;20.00;;;15.95;;
16430;SDS011;8325;49.284;7.238;2022-08-19T05:46:23;22.45;;;17.50;;
16430;SDS011;8325;49.284;7.238;2022-08-19T05:50:39;24.30;;;17.73;;
16430;SDS011;8325;49.284;7.238;2022-08-19T05:54:52;22.88;;;17.80;;
16430;SDS011;8325;49.284;7.238;2022-08-19T05:59:08;20.67;;;17.17;;
16430;SDS011;8325;49.284;7.238;2022-08-19T06:03:22;20.05;;;15.75;;
16430;SDS011;8325;49.284;7.238;2022-08-19T06:07:34;23.15;;;16.88;;
16430;SDS011;8325;49.284;7.238;2022-08-19T06:11:48;20.20;;;17.10;;
16430;SDS011;8325;49.284;7.238;2022-08-19T06:16:04;20.50;;;16.20;;
16430;SDS011;8325;49.284;7.238;2022-08-19T06:20:16;20.70;;;15.77;;
16430;SDS011;8325;49.284;7.238;2022-08-19T06:24:49;19.80;;;15.45;;
16430;SDS011;8325;49.284;7.238;2022-08-19T06:29:04;19.42;;;15.18;;
16430;SDS011;8325;49.284;7.238;2022-08-19T06:33:17;17.80;;;14.18;;
16430;SDS011;8325;49.284;7.238;2022-08-19T06:37:29;17.90;;;13.75;;
16430;SDS011;8325;49.284;7.238;2022-08-19T06:41:42;16.70;;;13.48;;
16430;SDS011;8325;49.284;7.238;2022-08-19T06:46:02;15.95;;;14.00;;
16430;SDS011;8325;49.284;7.238;2022-08-19T06:50:16;16.23;;;13.57;;
16430;SDS011;8325;49.284;7.238;2022-08-19T06:54:29;15.85;;;13.52;;
16430;SDS011;8325;49.284;7.238;2022-08-19T06:58:41;16.77;;;14.27;;
16430;SDS011;8325;49.284;7.238;2022-08-19T07:02:52;17.20;;;13.57;;
16430;SDS011;8325;49.284;7.238;2022-08-19T07:07:12;15.82;;;13.48;;
16430;SDS011;8325;49.284;7.238;2022-08-19T07:11:31;14.02;;;12.55;;
16430;SDS011;8325;49.284;7.238;2022-08-19T07:15:44;14.73;;;12.98;;
16430;SDS011;8325;49.284;7.238;2022-08-19T07:19:58;18.17;;;14.15;;
16430;SDS011;8325;49.284;7.238;2022-08-19T07:24:16;17.13;;;12.10;;
16430;SDS011;8325;49.284;7.238;2022-08-19T07:28:28;13.80;;;11.80;;
16430;SDS011;8325;49.284;7.238;2022-08-19T07:32:42;16.02;;;13.23;;
16430;SDS011;8325;49.284;7.238;2022-08-19T07:36:54;14.25;;;12.80;;
16430;SDS011;8325;49.284;7.238;2022-08-19T07:41:07;15.70;;;11.85;;
16430;SDS011;8325;49.284;7.238;2022-08-19T07:45:21;14.80;;;12.35;;
16430;SDS011;8325;49.284;7.238;2022-08-19T07:49:33;13.93;;;11.20;;
16430;SDS011;8325;49.284;7.238;2022-08-19T07:53:45;12.73;;;10.70;;
16430;SDS011;8325;49.284;7.238;2022-08-19T07:57:58;13.05;;;11.48;;
16430;SDS011;8325;49.284;7.238;2022-08-19T08:02:10;11.52;;;10.25;;
16430;SDS011;8325;49.284;7.238;2022-08-19T08:06:21;14.57;;;10.88;;
16430;SDS011;8325;49.284;7.238;2022-08-19T08:10:52;12.13;;;10.63;;
16430;SDS011;8325;49.284;7.238;2022-08-19T08:15:09;12.23;;;10.77;;
16430;SDS011;8325;49.284;7.238;2022-08-19T08:19:24;11.75;;;10.27;;
16430;SDS011;8325;49.284;7.238;2022-08-19T08:23:37;13.05;;;10.65;;
16430;SDS011;8325;49.284;7.238;2022-08-19T08:27:50;13.15;;;10.75;;
16430;SDS011;8325;49.284;7.238;2022-08-19T08:32:05;11.90;;;10.52;;
16430;SDS011;8325;49.284;7.238;2022-08-19T08:36:25;11.30;;;9.75;;
16430;SDS011;8325;49.284;7.238;2022-08-19T08:40:53;11.60;;;10.00;;
16430;SDS011;8325;49.284;7.238;2022-08-19T08:45:14;12.55;;;11.25;;
16430;SDS011;8325;49.284;7.238;2022-08-19T08:54:04;11.32;;;10.10;;
16430;SDS011;8325;49.284;7.238;2022-08-19T08:58:28;9.73;;;8.82;;
16430;SDS011;8325;49.284;7.238;2022-08-19T09:02:53;12.18;;;9.27;;
16430;SDS011;8325;49.284;7.238;2022-08-19T09:11:54;9.43;;;8.43;;
16430;SDS011;8325;49.284;7.238;2022-08-19T09:16:25;9.90;;;9.02;;
16430;SDS011;8325;49.284;7.238;2022-08-19T09:20:39;11.85;;;9.85;;
16430;SDS011;8325;49.284;7.238;2022-08-19T09:24:53;10.80;;;9.70;;
16430;SDS011;8325;49.284;7.238;2022-08-19T09:29:05;9.85;;;8.85;;
16430;SDS011;8325;49.284;7.238;2022-08-19T09:33:18;8.48;;;7.68;;
16430;SDS011;8325;49.284;7.238;2022-08-19T09:37:31;8.73;;;7.93;;
16430;SDS011;8325;49.284;7.238;2022-08-19T09:41:43;8.57;;;7.75;;
16430;SDS011;8325;49.284;7.238;2022-08-19T09:46:00;7.63;;;7.00;;
16430;SDS011;8325;49.284;7.238;2022-08-19T09:50:12;7.95;;;7.25;;
16430;SDS011;8325;49.284;7.238;2022-08-19T09:54:26;7.72;;;6.90;;
16430;SDS011;8325;49.284;7.238;2022-08-19T09:58:38;7.57;;;6.80;;
16430;SDS011;8325;49.284;7.238;2022-08-19T10:02:50;8.18;;;6.97;;
16430;SDS011;8325;49.284;7.238;2022-08-19T10:07:03;8.07;;;7.32;;
16430;SDS011;8325;49.284;7.238;2022-08-19T10:11:16;7.53;;;6.88;;
16430;SDS011;8325;49.284;7.238;2022-08-19T10:15:39;8.25;;;7.35;;
16430;SDS011;8325;49.284;7.238;2022-08-19T10:19:58;7.50;;;6.80;;
16430;SDS011;8325;49.284;7.238;2022-08-19T10:24:11;7.07;;;6.43;;
16430;SDS011;8325;49.284;7.238;2022-08-19T10:28:22;6.60;;;6.00;;
16430;SDS011;8325;49.284;7.238;2022-08-19T10:32:35;6.57;;;5.70;;
16430;SDS011;8325;49.284;7.238;2022-08-19T10:36:46;6.22;;;5.10;;
16430;SDS011;8325;49.284;7.238;2022-08-19T10:41:07;6.07;;;5.57;;
16430;SDS011;8325;49.284;7.238;2022-08-19T10:45:21;6.85;;;5.80;;
16430;SDS011;8325;49.284;7.238;2022-08-19T10:49:38;6.43;;;5.25;;
16430;SDS011;8325;49.284;7.238;2022-08-19T10:54:09;6.07;;;5.47;;
16430;SDS011;8325;49.284;7.238;2022-08-19T10:58:22;6.05;;;5.53;;
16430;SDS011;8325;49.284;7.238;2022-08-19T11:02:34;6.10;;;5.50;;
16430;SDS011;8325;49.284;7.238;2022-08-19T11:06:47;6.18;;;5.60;;
16430;SDS011;8325;49.284;7.238;2022-08-19T11:11:00;5.63;;;5.13;;
16430;SDS011;8325;49.284;7.238;2022-08-19T11:15:14;5.47;;;4.97;;
16430;SDS011;8325;49.284;7.238;2022-08-19T11:19:26;5.55;;;5.05;;
16430;SDS011;8325;49.284;7.238;2022-08-19T11:23:38;5.85;;;5.30;;
16430;SDS011;8325;49.284;7.238;2022-08-19T11:27:50;5.93;;;5.43;;
16430;SDS011;8325;49.284;7.238;2022-08-19T11:32:04;7.10;;;5.25;;
16430;SDS011;8325;49.284;7.238;2022-08-19T11:36:18;5.93;;;5.28;;
16430;SDS011;8325;49.284;7.238;2022-08-19T11:40:31;5.90;;;5.32;;
16430;SDS011;8325;49.284;7.238;2022-08-19T11:44:44;6.97;;;5.28;;
16430;SDS011;8325;49.284;7.238;2022-08-19T11:48:56;6.28;;;5.65;;
16430;SDS011;8325;49.284;7.238;2022-08-19T11:53:10;6.55;;;5.95;;
16430;SDS011;8325;49.284;7.238;2022-08-19T11:57:21;5.65;;;4.95;;
16430;SDS011;8325;49.284;7.238;2022-08-19T12:01:33;5.07;;;4.57;;
16430;SDS011;8325;49.284;7.238;2022-08-19T12:05:45;6.55;;;4.95;;
16430;SDS011;8325;49.284;7.238;2022-08-19T12:09:57;5.30;;;4.80;;
16430;SDS011;8325;49.284;7.238;2022-08-19T12:14:09;4.68;;;4.13;;
16430;SDS011;8325;49.284;7.238;2022-08-19T12:18:25;4.30;;;3.90;;
16430;SDS011;8325;49.284;7.238;2022-08-19T12:22:37;5.53;;;4.15;;
16430;SDS011;8325;49.284;7.238;2022-08-19T12:26:49;4.57;;;4.18;;
16430;SDS011;8325;49.284;7.238;2022-08-19T12:31:04;5.35;;;4.70;;
16430;SDS011;8325;49.284;7.238;2022-08-19T12:35:16;7.13;;;5.10;;
16430;SDS011;8325;49.284;7.238;2022-08-19T12:39:35;5.20;;;4.63;;
16430;SDS011;8325;49.284;7.238;2022-08-19T12:43:51;6.15;;;5.63;;
16430;SDS011;8325;49.284;7.238;2022-08-19T12:48:03;6.45;;;5.40;;
16430;SDS011;8325;49.284;7.238;2022-08-19T12:52:36;6.28;;;5.78;;
16430;SDS011;8325;49.284;7.238;2022-08-19T12:56:53;7.38;;;6.68;;
16430;SDS011;8325;49.284;7.238;2022-08-19T13:01:12;6.93;;;6.13;;
16430;SDS011;8325;49.284;7.238;2022-08-19T13:05:28;7.38;;;6.60;;
16430;SDS011;8325;49.284;7.238;2022-08-19T13:09:42;8.75;;;7.85;;
16430;SDS011;8325;49.284;7.238;2022-08-19T13:13:53;8.32;;;7.15;;
16430;SDS011;8325;49.284;7.238;2022-08-19T13:18:08;8.80;;;7.72;;
16430;SDS011;8325;49.284;7.238;2022-08-19T13:22:21;7.95;;;7.25;;
16430;SDS011;8325;49.284;7.238;2022-08-19T13:26:33;9.60;;;8.45;;
16430;SDS011;8325;49.284;7.238;2022-08-19T13:30:46;10.10;;;9.13;;
16430;SDS011;8325;49.284;7.238;2022-08-19T13:35:17;10.27;;;9.27;;
16430;SDS011;8325;49.284;7.238;2022-08-19T13:39:29;10.52;;;9.43;;
16430;SDS011;8325;49.284;7.238;2022-08-19T13:43:41;10.25;;;9.25;;
16430;SDS011;8325;49.284;7.238;2022-08-19T13:47:54;9.57;;;8.57;;
16430;SDS011;8325;49.284;7.238;2022-08-19T13:52:10;9.60;;;8.65;;
16430;SDS011;8325;49.284;7.238;2022-08-19T13:56:21;9.95;;;8.85;;
16430;SDS011;8325;49.284;7.238;2022-08-19T14:00:38;9.98;;;9.00;;
16430;SDS011;8325;49.284;7.238;2022-08-19T14:04:52;10.52;;;8.50;;
16430;SDS011;8325;49.284;7.238;2022-08-19T14:09:04;9.57;;;8.35;;
16430;SDS011;8325;49.284;7.238;2022-08-19T14:13:17;10.95;;;8.10;;
16430;SDS011;8325;49.284;7.238;2022-08-19T14:17:31;10.20;;;7.82;;
16430;SDS011;8325;49.284;7.238;2022-08-19T14:21:42;8.82;;;7.70;;
16430;SDS011;8325;49.284;7.238;2022-08-19T14:26:02;7.63;;;6.93;;
16430;SDS011;8325;49.284;7.238;2022-08-19T14:30:20;8.18;;;7.38;;
16430;SDS011;8325;49.284;7.238;2022-08-19T14:34:33;7.60;;;6.80;;
16430;SDS011;8325;49.284;7.238;2022-08-19T14:38:46;7.38;;;6.68;;
16430;SDS011;8325;49.284;7.238;2022-08-19T14:42:59;7.07;;;6.25;;
16430;SDS011;8325;49.284;7.238;2022-08-19T14:47:14;7.38;;;6.40;;
16430;SDS011;8325;49.284;7.238;2022-08-19T14:51:26;6.63;;;6.03;;
16430;SDS011;8325;49.284;7.238;2022-08-19T14:55:40;7.07;;;6.38;;
16430;SDS011;8325;49.284;7.238;2022-08-19T14:59:53;6.32;;;5.55;;
16430;SDS011;8325;49.284;7.238;2022-08-19T15:04:05;5.72;;;5.22;;
16430;SDS011;8325;49.284;7.238;2022-08-19T15:08:17;6.53;;;5.68;;
16430;SDS011;8325;49.284;7.238;2022-08-19T15:12:28;5.30;;;4.80;;
16430;SDS011;8325;49.284;7.238;2022-08-19T15:16:40;5.68;;;4.60;;
16430;SDS011;8325;49.284;7.238;2022-08-19T15:20:53;6.95;;;4.35;;
16430;SDS011;8325;49.284;7.238;2022-08-19T15:25:07;5.93;;;4.50;;
16430;SDS011;8325;49.284;7.238;2022-08-19T15:29:22;5.97;;;3.90;;
16430;SDS011;8325;49.284;7.238;2022-08-19T15:33:35;4.35;;;3.95;;
16430;SDS011;8325;49.284;7.238;2022-08-19T15:37:48;3.83;;;3.40;;
16430;SDS011;8325;49.284;7.238;2022-08-19T15:42:00;4.47;;;3.35;;
16430;SDS011;8325;49.284;7.238;2022-08-19T15:46:12;3.67;;;3.38;;
16430;SDS011;8325;49.284;7.238;2022-08-19T15:50:32;5.07;;;3.33;;
16430;SDS011;8325;49.284;7.238;2022-08-19T15:54:44;3.72;;;3.42;;
16430;SDS011;8325;49.284;7.238;2022-08-19T15:58:55;3.90;;;3.30;;
16430;SDS011;8325;49.284;7.238;2022-08-19T16:03:25;4.05;;;3.65;;
16430;SDS011;8325;49.284;7.238;2022-08-19T16:07:57;4.38;;;3.65;;
16430;SDS011;8325;49.284;7.238;2022-08-19T16:12:09;3.60;;;3.30;;
16430;SDS011;8325;49.284;7.238;2022-08-19T16:16:21;4.07;;;3.53;;
16430;SDS011;8325;49.284;7.238;2022-08-19T16:20:41;7.93;;;3.58;;
16430;SDS011;8325;49.284;7.238;2022-08-19T16:24:54;4.55;;;3.78;;
16430;SDS011;8325;49.284;7.238;2022-08-19T16:29:06;4.07;;;3.67;;
16430;SDS011;8325;49.284;7.238;2022-08-19T16:33:23;4.22;;;3.70;;
16430;SDS011;8325;49.284;7.238;2022-08-19T16:37:35;10.80;;;3.95;;
16430;SDS011;8325;49.284;7.238;2022-08-19T16:41:47;5.05;;;3.90;;
16430;SDS011;8325;49.284;7.238;2022-08-19T16:45:59;4.35;;;3.95;;
16430;SDS011;8325;49.284;7.238;2022-08-19T16:50:11;5.30;;;4.28;;
16430;SDS011;8325;49.284;7.238;2022-08-19T16:54:23;5.60;;;5.00;;
16430;SDS011;8325;49.284;7.238;2022-08-19T16:58:42;4.75;;;4.20;;
16430;SDS011;8325;49.284;7.238;2022-08-19T17:02:54;5.47;;;4.60;;
16430;SDS011;8325;49.284;7.238;2022-08-19T17:07:08;4.80;;;4.30;;
16430;SDS011;8325;49.284;7.238;2022-08-19T17:11:21;4.70;;;4.28;;
16430;SDS011;8325;49.284;7.238;2022-08-19T17:15:33;5.20;;;4.45;;
16430;SDS011;8325;49.284;7.238;2022-08-19T17:19:45;6.78;;;4.10;;
16430;SDS011;8325;49.284;7.238;2022-08-19T17:23:58;4.75;;;4.10;;
16430;SDS011;8325;49.284;7.238;2022-08-19T17:28:21;3.80;;;3.40;;
16430;SDS011;8325;49.284;7.238;2022-08-19T17:32:36;5.72;;;2.97;;
16430;SDS011;8325;49.284;7.238;2022-08-19T17:36:47;3.92;;;2.55;;
16430;SDS011;8325;49.284;7.238;2022-08-19T17:40:59;4.20;;;2.92;;
16430;SDS011;8325;49.284;7.238;2022-08-19T17:45:15;3.20;;;2.40;;
16430;SDS011;8325;49.284;7.238;2022-08-19T17:49:27;2.42;;;2.20;;
16430;SDS011;8325;49.284;7.238;2022-08-19T17:53:43;2.28;;;2.08;;
16430;SDS011;8325;49.284;7.238;2022-08-19T17:57:55;2.08;;;1.98;;
16430;SDS011;8325;49.284;7.238;2022-08-19T18:02:08;1.60;;;1.50;;
16430;SDS011;8325;49.284;7.238;2022-08-19T18:06:21;1.45;;;1.35;;
16430;SDS011;8325;49.284;7.238;2022-08-19T18:10:33;1.75;;;1.40;;
16430;SDS011;8325;49.284;7.238;2022-08-19T18:14:45;2.03;;;1.45;;
16430;SDS011;8325;49.284;7.238;2022-08-19T18:18:58;1.42;;;1.33;;
16430;SDS011;8325;49.284;7.238;2022-08-19T18:23:09;1.27;;;1.10;;
16430;SDS011;8325;49.284;7.238;2022-08-19T18:27:41;1.73;;;1.10;;
16430;SDS011;8325;49.284;7.238;2022-08-19T18:31:53;1.23;;;1.13;;
16430;SDS011;8325;49.284;7.238;2022-08-19T18:36:07;1.13;;;1.02;;
16430;SDS011;8325;49.284;7.238;2022-08-19T18:40:21;1.50;;;1.40;;
16430;SDS011;8325;49.284;7.238;2022-08-19T18:44:51;1.30;;;1.20;;
16430;SDS011;8325;49.284;7.238;2022-08-19T18:49:31;1.25;;;1.15;;
16430;SDS011;8325;49.284;7.238;2022-08-19T18:53:44;2.28;;;1.08;;
16430;SDS011;8325;49.284;7.238;2022-08-19T18:57:57;1.08;;;0.95;;
16430;SDS011;8325;49.284;7.238;2022-08-19T19:02:09;1.20;;;1.10;;
16430;SDS011;8325;49.284;7.238;2022-08-19T19:06:34;2.17;;;1.10;;
16430;SDS011;8325;49.284;7.238;2022-08-19T19:10:48;1.63;;;1.17;;
16430;SDS011;8325;49.284;7.238;2022-08-19T19:15:01;1.05;;;0.98;;
16430;SDS011;8325;49.284;7.238;2022-08-19T19:19:16;1.00;;;0.90;;
16430;SDS011;8325;49.284;7.238;2022-08-19T19:23:29;1.10;;;1.10;;
16430;SDS011;8325;49.284;7.238;2022-08-19T19:27:41;1.02;;;0.98;;
16430;SDS011;8325;49.284;7.238;2022-08-19T19:31:52;1.00;;;1.00;;
16430;SDS011;8325;49.284;7.238;2022-08-19T19:36:06;0.98;;;0.90;;
16430;SDS011;8325;49.284;7.238;2022-08-19T19:40:18;1.42;;;0.90;;
16430;SDS011;8325;49.284;7.238;2022-08-19T19:44:32;1.17;;;1.08;;
16430;SDS011;8325;49.284;7.238;2022-08-19T19:48:44;0.75;;;0.75;;
16430;SDS011;8325;49.284;7.238;2022-08-19T19:52:56;1.67;;;0.82;;
16430;SDS011;8325;49.284;7.238;2022-08-19T19:57:08;1.55;;;0.70;;
16430;SDS011;8325;49.284;7.238;2022-08-19T20:01:21;1.05;;;0.95;;
16430;SDS011;8325;49.284;7.238;2022-08-19T20:05:36;1.20;;;1.10;;
16430;SDS011;8325;49.284;7.238;2022-08-19T20:09:47;1.23;;;0.93;;
16430;SDS011;8325;49.284;7.238;2022-08-19T20:18:22;1.67;;;0.90;;
16430;SDS011;8325;49.284;7.238;2022-08-19T20:22:36;1.10;;;1.00;;
16430;SDS011;8325;49.284;7.238;2022-08-19T20:26:50;1.05;;;1.00;;
16430;SDS011;8325;49.284;7.238;2022-08-19T20:31:03;1.00;;;0.90;;
16430;SDS011;8325;49.284;7.238;2022-08-19T20:35:16;1.55;;;1.15;;
16430;SDS011;8325;49.284;7.238;2022-08-19T20:39:29;1.20;;;1.10;;
16430;SDS011;8325;49.284;7.238;2022-08-19T20:43:41;1.27;;;1.00;;
16430;SDS011;8325;49.284;7.238;2022-08-19T20:47:53;1.17;;;1.08;;
16430;SDS011;8325;49.284;7.238;2022-08-19T20:52:05;1.50;;;1.30;;
16430;SDS011;8325;49.284;7.238;2022-08-19T20:56:16;1.83;;;1.15;;
16430;SDS011;8325;49.284;7.238;2022-08-19T21:00:30;2.83;;;1.20;;
16430;SDS011;8325;49.284;7.238;2022-08-19T21:04:41;1.70;;;1.30;;
16430;SDS011;8325;49.284;7.238;2022-08-19T21:08:53;3.13;;;1.50;;
16430;SDS011;8325;49.284;7.238;2022-08-19T21:13:04;1.95;;;1.40;;
16430;SDS011;8325;49.284;7.238;2022-08-19T21:17:16;1.27;;;1.17;;
16430;SDS011;8325;49.284;7.238;2022-08-19T21:21:28;2.35;;;1.20;;
16430;SDS011;8325;49.284;7.238;2022-08-19T21:25:40;2.00;;;1.52;;
